Time;durP1;ratioP1;P1;durP2;ratioP2;P2;SDS_P1;SDS_P2;PMS_P1;PMS_P2;Temp;Humidity;BMP_temperature;BMP_pressure;BME280_temperature;BME280_humidity;BME280_pressure;Samples;Min_cycle;Max_cycle;Signal;HPM_P1;HPM_P2
2022/01/14 00:02:01;;;;;;;77.28;30.70;;;;;;;5.46;80.12;102874.56;5035234;28;20045;-69
2022/01/14 00:04:27;;;;;;;88.88;42.65;;;;;;;5.28;80.48;102875.38;5045208;28;20069;-69
2022/01/14 00:06:55;;;;;;;85.10;34.30;;;;;;;5.49;79.72;102870.25;5044678;28;20044;-70
2022/01/14 00:09:21;;;;;;;82.85;31.88;;;;;;;5.80;78.38;102871.19;5036677;28;20095;-70
2022/01/14 00:11:54;;;;;;;89.75;35.03;;;;;;;5.77;78.42;102869.44;5009246;28;20054;-69
2022/01/14 00:14:24;;;;;;;124.25;84.80;;;;;;;5.55;79.15;102856.38;5030808;28;20051;-69
2022/01/14 00:16:51;;;;;;;121.65;86.05;;;;;;;5.45;79.46;102858.09;5025193;28;20042;-69
2022/01/14 00:19:18;;;;;;;86.22;32.65;;;;;;;5.61;79.07;102859.00;5023803;28;20069;-70
2022/01/14 00:21:45;;;;;;;93.65;34.83;;;;;;;5.47;79.14;102858.94;5020786;28;20045;-70
2022/01/14 00:24:23;;;;;;;80.68;34.28;;;;;;;5.66;78.74;102855.53;5004811;28;20437;-70
2022/01/14 00:32:25;;;;;;;119.82;69.80;;;;;;;5.37;80.00;102851.97;5024617;28;20524;-69
2022/01/14 00:34:51;;;;;;;90.88;47.00;;;;;;;5.37;80.01;102858.06;5044615;28;20045;-69
2022/01/14 00:37:18;;;;;;;97.78;54.88;;;;;;;5.29;80.36;102853.69;5044770;28;20145;-69
2022/01/14 00:39:46;;;;;;;93.72;34.47;;;;;;;5.46;80.23;102852.03;5037388;28;20046;-70
2022/01/14 00:42:14;;;;;;;97.90;35.47;;;;;;;5.50;79.91;102848.56;5020941;28;20612;-70
2022/01/14 00:44:41;;;;;;;138.73;91.60;;;;;;;5.39;80.20;102852.88;5031248;28;20491;-69
2022/01/14 00:47:08;;;;;;;181.95;161.75;;;;;;;5.18;81.57;102852.78;5045672;28;20417;-69
2022/01/14 00:49:34;;;;;;;92.38;35.42;;;;;;;5.60;79.54;102850.31;5044936;28;20115;-69
2022/01/14 00:52:00;;;;;;;92.72;33.72;;;;;;;5.90;78.36;102851.28;5031591;28;20045;-70
2022/01/14 00:54:27;;;;;;;95.18;45.70;;;;;;;5.40;80.39;102852.00;5011288;28;20073;-70
2022/01/14 00:57:13;;;;;;;95.22;33.20;;;;;;;5.39;80.84;102858.09;5004531;28;20050;-70
2022/01/14 00:59:40;;;;;;;84.18;33.63;;;;;;;5.63;79.42;102868.53;5009918;28;20053;-69
2022/01/14 01:02:07;;;;;;;95.50;35.17;;;;;;;5.38;80.35;102859.81;5035221;28;20041;-70
2022/01/14 01:04:37;;;;;;;91.28;36.10;;;;;;;5.31;80.93;102864.97;5048435;28;20057;-70
2022/01/14 01:07:06;;;;;;;98.15;40.33;;;;;;;5.17;81.50;102871.88;5045444;28;20041;-70
2022/01/14 01:09:32;;;;;;;278.73;236.05;;;;;;;4.95;82.13;102865.69;5048960;28;20048;-70
2022/01/14 01:12:09;;;;;;;88.45;38.88;;;;;;;5.28;81.10;102859.78;5011849;28;20119;-70
2022/01/14 01:14:42;;;;;;;96.68;35.25;;;;;;;5.36;80.69;102864.13;5028063;28;20041;-70
2022/01/14 01:17:11;;;;;;;88.80;33.58;;;;;;;5.51;80.15;102857.22;5007904;28;20045;-70
2022/01/14 01:19:37;;;;;;;95.72;34.20;;;;;;;5.53;79.77;102860.72;5009597;28;20073;-69
2022/01/14 01:22:04;;;;;;;110.13;38.08;;;;;;;5.40;79.86;102865.00;5014078;28;20042;-69
2022/01/14 01:24:31;;;;;;;92.22;39.25;;;;;;;5.57;79.57;102860.72;5027643;28;20618;-69
2022/01/14 01:27:02;;;;;;;86.68;32.28;;;;;;;5.75;79.07;102858.16;5026976;28;20398;-70
2022/01/14 01:29:44;;;;;;;101.82;45.60;;;;;;;5.76;78.73;102857.31;5027186;28;20510;-70
2022/01/14 01:32:12;;;;;;;106.45;77.10;;;;;;;5.64;79.07;102859.88;5035264;28;20048;-70
2022/01/14 01:34:38;;;;;;;108.85;34.90;;;;;;;5.64;79.29;102854.66;5048585;28;20090;-70
2022/01/14 01:37:05;;;;;;;99.53;34.20;;;;;;;5.62;79.16;102853.78;5030146;28;20054;-70
2022/01/14 01:39:34;;;;;;;99.75;36.08;;;;;;;5.38;79.95;102843.31;5029278;28;20092;-70
2022/01/14 01:42:05;;;;;;;99.03;34.35;;;;;;;5.23;80.66;102851.06;5021650;28;20124;-70
2022/01/14 01:44:31;;;;;;;86.85;34.28;;;;;;;5.32;80.33;102858.91;5038067;28;20387;-69
2022/01/14 01:46:59;;;;;;;93.55;41.05;;;;;;;4.96;81.39;102864.81;5031121;28;20614;-70
2022/01/14 01:49:31;;;;;;;88.50;34.90;;;;;;;5.17;81.03;102848.47;5031749;28;20096;-70
2022/01/14 01:51:58;;;;;;;92.55;39.65;;;;;;;5.25;80.12;102849.31;5031867;28;20053;-70
2022/01/14 01:54:26;;;;;;;97.63;37.10;;;;;;;5.19;80.23;102854.53;5031455;28;20049;-70
2022/01/14 01:56:53;;;;;;;100.78;41.63;;;;;;;5.38;79.47;102845.94;5011907;28;20042;-70
2022/01/14 01:59:20;;;;;;;93.95;53.28;;;;;;;5.29;79.90;102845.88;5011625;28;20049;-70
2022/01/14 02:01:47;;;;;;;160.07;128.70;;;;;;;5.19;79.79;102852.78;5039318;28;20075;-70
2022/01/14 02:04:14;;;;;;;91.85;42.63;;;;;;;5.08;80.17;102841.47;5051405;28;20393;-70
2022/01/14 02:06:42;;;;;;;92.72;40.63;;;;;;;5.20;79.93;102835.47;5022681;28;20049;-70
2022/01/14 02:09:09;;;;;;;96.13;52.72;;;;;;;5.19;79.76;102831.13;5011095;28;20100;-70
2022/01/14 02:11:36;;;;;;;88.57;34.47;;;;;;;5.09;79.90;102842.34;5016401;28;20114;-70
2022/01/14 02:14:11;;;;;;;92.70;35.30;;;;;;;5.10;80.27;102842.34;5032700;28;20095;-70
2022/01/14 02:16:59;;;;;;;86.80;33.40;;;;;;;5.32;79.20;102840.72;5018502;28;20049;-70
2022/01/14 02:19:29;;;;;;;109.00;36.72;;;;;;;5.43;78.52;102844.22;5010927;28;20042;-70
2022/01/14 02:22:12;;;;;;;82.20;35.75;;;;;;;5.01;79.83;102828.44;5011391;28;20050;-70
2022/01/14 02:25:03;;;;;;;89.97;36.88;;;;;;;4.67;81.51;102836.06;5011420;28;20405;-69
2022/01/14 02:27:30;;;;;;;110.82;47.90;;;;;;;4.84;81.07;102830.97;5011525;28;20050;-69
2022/01/14 02:29:56;;;;;;;93.43;33.30;;;;;;;5.04;80.59;102829.31;5018267;28;20049;-70
2022/01/14 02:32:22;;;;;;;101.32;35.95;;;;;;;5.10;80.46;102833.69;5042523;28;20045;-70
2022/01/14 02:34:48;;;;;;;96.65;65.18;;;;;;;4.82;80.98;102825.75;5032787;28;20045;-70
2022/01/14 02:37:19;;;;;;;89.95;34.47;;;;;;;4.96;80.89;102823.22;5031992;28;20045;-70
2022/01/14 02:39:46;;;;;;;95.07;37.60;;;;;;;4.99;80.31;102823.22;5030428;28;20049;-70
2022/01/14 02:42:12;;;;;;;98.97;36.05;;;;;;;5.24;79.70;102816.41;5025688;28;20103;-70
2022/01/14 02:44:39;;;;;;;90.32;34.38;;;;;;;4.95;80.69;102824.09;5027424;28;20045;-70
2022/01/14 02:47:06;;;;;;;137.18;107.93;;;;;;;4.85;80.95;102817.09;5029561;28;20049;-70
2022/01/14 02:49:35;;;;;;;115.70;82.15;;;;;;;4.93;80.59;102811.94;5029920;28;20045;-70
2022/01/14 02:52:04;;;;;;;134.57;97.07;;;;;;;5.11;80.00;102812.00;5023503;28;20045;-70
2022/01/14 02:54:40;;;;;;;99.97;34.90;;;;;;;4.99;80.67;102823.22;5024353;28;20133;-70
2022/01/14 02:57:09;;;;;;;89.30;34.42;;;;;;;5.05;80.76;102809.41;5017321;28;20050;-70
2022/01/14 02:59:39;;;;;;;95.70;48.30;;;;;;;4.97;80.34;102796.38;5015161;28;20037;-70
2022/01/14 03:02:08;;;;;;;97.13;44.53;;;;;;;4.74;81.62;102808.38;5018720;28;20047;-70
2022/01/14 03:04:39;;;;;;;104.50;36.60;;;;;;;4.82;81.48;102806.69;5030073;28;20045;-69
2022/01/14 03:07:07;;;;;;;83.63;37.63;;;;;;;5.18;80.44;102800.75;5029381;28;20053;-70
2022/01/14 03:09:35;;;;;;;94.90;34.03;;;;;;;5.21;79.78;102796.44;5029380;28;20053;-70
2022/01/14 03:12:03;;;;;;;96.28;52.05;;;;;;;4.92;81.13;102803.25;5015881;28;20049;-70
2022/01/14 03:14:29;;;;;;;131.70;95.30;;;;;;;4.99;80.31;102798.97;5032662;28;20468;-70
2022/01/14 03:16:58;;;;;;;86.50;34.60;;;;;;;5.12;80.42;102804.22;5048596;28;20079;-70
2022/01/14 03:19:26;;;;;;;93.47;32.17;;;;;;;5.27;80.16;102800.81;5032517;28;20049;-70
2022/01/14 03:22:03;;;;;;;92.78;40.47;;;;;;;5.11;80.21;102799.88;5029429;28;20544;-70
2022/01/14 03:27:11;;;;;;;84.37;33.67;;;;;;;5.42;79.29;102786.97;5012536;28;20042;-70
2022/01/14 03:29:38;;;;;;;88.20;33.65;;;;;;;5.57;78.65;102787.88;5029141;28;20629;-70
2022/01/14 03:32:05;;;;;;;95.72;51.75;;;;;;;5.23;79.45;102781.72;5039187;28;20037;-70
2022/01/14 03:34:32;;;;;;;87.75;38.72;;;;;;;5.36;79.32;102791.28;5043456;28;20053;-70
2022/01/14 03:36:58;;;;;;;90.05;34.80;;;;;;;5.20;79.94;102784.31;5021711;28;20064;-70
2022/01/14 03:39:25;;;;;;;92.32;38.65;;;;;;;5.45;78.75;102782.63;5017637;28;20506;-70
2022/01/14 03:41:51;;;;;;;88.15;33.72;;;;;;;5.38;79.09;102786.09;5021510;28;20058;-70
2022/01/14 03:44:19;;;;;;;77.57;30.55;;;;;;;5.40;79.27;102781.75;5033645;28;20140;-70
2022/01/14 03:46:45;;;;;;;106.38;71.43;;;;;;;5.19;79.58;102774.78;5044358;28;20049;-70
2022/01/14 03:49:13;;;;;;;87.53;33.55;;;;;;;5.16;80.06;102773.91;5042360;28;20107;-70
2022/01/14 03:51:41;;;;;;;88.60;37.03;;;;;;;5.22;79.97;102771.31;5029625;28;20041;-69
2022/01/14 03:54:08;;;;;;;313.95;280.10;;;;;;;4.84;81.51;102766.84;5029586;28;20041;-69
2022/01/14 03:56:34;;;;;;;141.60;97.15;;;;;;;4.89;81.74;102767.72;5022460;28;20107;-70
2022/01/14 03:59:01;;;;;;;92.20;34.08;;;;;;;5.00;81.24;102757.38;5043316;28;20072;-69
2022/01/14 04:01:29;;;;;;;143.00;97.15;;;;;;;4.87;81.78;102758.19;5022811;28;20046;-69
2022/01/14 04:03:55;;;;;;;95.03;37.60;;;;;;;5.03;81.17;102757.38;5036232;28;20114;-69
2022/01/14 04:06:22;;;;;;;95.53;36.67;;;;;;;5.52;79.44;102750.56;5043388;28;20521;-69
2022/01/14 04:08:48;;;;;;;155.32;122.78;;;;;;;5.01;80.92;102745.25;5026727;28;20543;-69
2022/01/14 04:11:15;;;;;;;84.32;31.55;;;;;;;4.85;82.14;102746.91;5025520;28;20068;-70
2022/01/14 04:13:47;;;;;;;89.18;46.35;;;;;;;4.76;82.11;102739.97;5032947;28;20049;-69
2022/01/14 04:16:14;;;;;;;139.07;89.03;;;;;;;4.86;81.93;102738.25;5041715;28;20045;-70
2022/01/14 04:18:42;;;;;;;252.30;221.80;;;;;;;4.87;81.92;102740.88;5015933;28;20564;-70
2022/01/14 04:21:09;;;;;;;98.15;35.50;;;;;;;5.02;81.52;102734.00;5018665;28;20510;-70
2022/01/14 04:23:35;;;;;;;113.63;78.63;;;;;;;5.13;80.88;102733.16;5025327;28;20077;-70
2022/01/14 04:26:02;;;;;;;87.28;37.20;;;;;;;5.22;80.36;102740.09;5009159;28;20628;-70
2022/01/14 04:28:33;;;;;;;80.38;31.70;;;;;;;5.06;81.36;102731.41;5010925;28;20046;-70
2022/01/14 04:31:00;;;;;;;96.90;44.90;;;;;;;5.08;81.65;102727.06;5015706;28;20635;-69
2022/01/14 04:33:28;;;;;;;94.00;37.13;;;;;;;5.42;80.28;102733.22;5035440;28;20096;-69
2022/01/14 04:35:58;;;;;;;162.57;137.43;;;;;;;5.10;81.07;102717.53;5020816;28;20045;-70
2022/01/14 04:38:25;;;;;;;104.80;70.18;;;;;;;5.18;81.10;102725.34;5010603;28;20057;-69
2022/01/14 04:40:52;;;;;;;94.63;35.08;;;;;;;5.64;79.28;102734.09;5015870;28;20410;-70
2022/01/14 04:43:20;;;;;;;91.95;36.03;;;;;;;5.72;78.66;102727.16;5027810;28;20052;-70
2022/01/14 04:46:02;;;;;;;122.25;83.47;;;;;;;5.36;79.91;102727.97;5029592;28;20050;-70
2022/01/14 04:48:29;;;;;;;98.97;31.98;;;;;;;5.19;80.97;102732.28;5028545;28;20072;-70
2022/01/14 04:50:58;;;;;;;102.03;58.72;;;;;;;5.05;81.58;102726.19;5026354;28;20037;-69
2022/01/14 04:53:25;;;;;;;110.93;63.08;;;;;;;5.09;81.11;102718.41;5022214;28;20049;-69
2022/01/14 04:55:51;;;;;;;83.68;31.90;;;;;;;5.07;81.90;102730.53;5036169;28;20199;-70
2022/01/14 04:58:18;;;;;;;91.50;32.67;;;;;;;5.20;80.90;102719.31;5048202;28;20045;-70
2022/01/14 05:00:45;;;;;;;87.32;34.42;;;;;;;4.87;82.82;102721.81;5037871;28;20539;-70
2022/01/14 05:03:11;;;;;;;94.80;32.95;;;;;;;5.02;82.25;102727.06;5015913;28;20041;-70
2022/01/14 05:05:40;;;;;;;86.65;33.75;;;;;;;5.17;81.69;102732.31;5009387;28;20042;-70
2022/01/14 05:08:11;;;;;;;98.07;34.83;;;;;;;5.07;81.63;102719.25;5008630;28;20042;-69
2022/01/14 05:10:49;;;;;;;86.10;39.58;;;;;;;5.15;81.06;102725.34;5023592;28;20120;-70
2022/01/14 05:13:16;;;;;;;145.00;103.68;;;;;;;5.20;81.09;102719.31;5027365;28;20045;-69
2022/01/14 05:15:42;;;;;;;103.80;40.08;;;;;;;5.09;81.63;102712.34;5039987;28;20103;-69
2022/01/14 05:18:09;;;;;;;101.45;40.50;;;;;;;4.87;82.59;102725.28;5043683;28;20041;-70
2022/01/14 05:20:35;;;;;;;92.32;47.47;;;;;;;4.95;82.53;102714.03;5015182;28;20572;-70
2022/01/14 05:23:01;;;;;;;85.30;35.40;;;;;;;5.24;81.33;102715.84;5017827;28;20499;-70
2022/01/14 05:25:29;;;;;;;148.52;120.20;;;;;;;5.13;81.71;102714.97;5011602;28;20041;-70
2022/01/14 05:27:56;;;;;;;91.55;39.05;;;;;;;5.25;80.88;102714.97;5041222;28;20088;-69
2022/01/14 05:30:22;;;;;;;126.45;84.55;;;;;;;4.98;82.17;102704.53;5038422;28;20102;-69
2022/01/14 05:32:52;;;;;;;90.93;37.15;;;;;;;5.18;81.67;102710.59;5031428;28;20191;-69
2022/01/14 05:35:21;;;;;;;86.60;33.10;;;;;;;5.62;80.05;102710.66;5033039;28;20068;-69
2022/01/14 05:37:47;;;;;;;106.35;42.58;;;;;;;5.52;80.10;102711.53;5024909;28;20075;-70
2022/01/14 05:40:15;;;;;;;119.00;72.50;;;;;;;5.29;80.66;102705.41;5039693;28;20502;-69
2022/01/14 05:42:44;;;;;;;85.60;38.20;;;;;;;4.89;82.47;102700.16;5022528;28;20050;-70
2022/01/14 05:45:13;;;;;;;91.82;35.28;;;;;;;5.14;81.87;102695.00;5024887;28;20042;-70
2022/01/14 05:47:40;;;;;;;99.55;47.00;;;;;;;5.05;81.91;102693.25;5026291;28;20125;-70
2022/01/14 05:50:09;;;;;;;87.32;37.10;;;;;;;5.17;81.63;102689.81;5040899;28;20049;-70
2022/01/14 05:52:35;;;;;;;231.95;206.65;;;;;;;4.97;82.18;102688.91;5045692;28;20127;-69
2022/01/14 05:55:02;;;;;;;92.15;48.33;;;;;;;4.98;82.00;102691.53;5051217;28;20052;-69
2022/01/14 05:57:29;;;;;;;85.32;35.97;;;;;;;5.04;82.48;102688.91;5041361;28;20567;-70
2022/01/14 05:59:56;;;;;;;89.32;35.90;;;;;;;5.15;81.61;102665.53;5044231;28;20498;-70
2022/01/14 06:02:23;;;;;;;97.55;47.85;;;;;;;5.07;81.92;102659.44;5043157;28;20048;-70
2022/01/14 06:04:49;;;;;;;80.40;32.70;;;;;;;5.31;81.19;102670.75;5049095;28;20045;-70
2022/01/14 06:07:15;;;;;;;77.45;34.67;;;;;;;5.32;80.75;102672.47;5035505;28;20068;-70
2022/01/14 06:09:41;;;;;;;93.88;50.67;;;;;;;5.16;81.47;102673.34;5051015;28;20048;-70
2022/01/14 06:12:09;;;;;;;88.45;33.83;;;;;;;5.09;81.96;102675.94;5022191;28;20076;-70
2022/01/14 06:14:35;;;;;;;124.28;109.88;;;;;;;5.01;82.13;102662.06;5027082;28;20045;-70
2022/01/14 06:17:04;;;;;;;94.25;54.63;;;;;;;5.07;82.05;102667.25;5007762;28;20077;-70
2022/01/14 06:19:30;;;;;;;89.32;36.60;;;;;;;5.07;81.95;102659.44;5024272;28;20445;-70
2022/01/14 06:21:56;;;;;;;96.97;67.13;;;;;;;4.95;82.38;102651.66;5039064;28;20475;-70
2022/01/14 06:24:23;;;;;;;75.97;34.05;;;;;;;5.30;81.21;102668.16;5040897;28;20548;-70
2022/01/14 06:26:50;;;;;;;100.75;57.15;;;;;;;5.28;81.03;102660.34;5043413;28;20071;-70
2022/01/14 06:29:16;;;;;;;86.40;38.22;;;;;;;5.32;80.38;102664.69;5021621;28;20054;-70
2022/01/14 06:31:42;;;;;;;88.93;47.55;;;;;;;5.42;80.11;102670.75;5032251;28;20096;-70
2022/01/14 06:34:11;;;;;;;87.75;32.80;;;;;;;5.33;80.67;102675.94;5045768;28;20493;-70
2022/01/14 06:36:38;;;;;;;135.88;95.07;;;;;;;5.57;79.54;102675.09;5040938;28;20050;-70
2022/01/14 06:39:04;;;;;;;81.47;32.53;;;;;;;5.34;80.33;102678.56;5029878;28;20049;-70
2022/01/14 06:41:32;;;;;;;74.35;40.67;;;;;;;5.26;80.76;102695.91;5022323;28;20673;-70
2022/01/14 06:43:58;;;;;;;79.45;33.13;;;;;;;5.47;79.75;102689.00;5023843;28;20052;-70
2022/01/14 06:46:25;;;;;;;81.93;31.48;;;;;;;5.23;80.55;102700.22;5035079;28;20131;-69
2022/01/14 06:48:51;;;;;;;83.65;33.28;;;;;;;5.20;80.56;102693.28;5045210;28;20068;-69
2022/01/14 06:51:19;;;;;;;72.95;30.55;;;;;;;5.35;80.45;102706.31;5037678;28;20075;-70
2022/01/14 06:53:45;;;;;;;80.18;31.83;;;;;;;5.65;78.87;102696.78;5025437;28;20049;-70
2022/01/14 06:56:14;;;;;;;75.30;29.70;;;;;;;5.65;78.24;102721.09;5031672;28;20044;-69
2022/01/14 06:58:40;;;;;;;73.72;33.28;;;;;;;5.14;79.89;102706.25;5043153;28;20052;-70
2022/01/14 07:01:06;;;;;;;70.68;30.00;;;;;;;5.30;79.62;102701.97;5042603;28;20453;-70
2022/01/14 07:03:33;;;;;;;161.82;130.13;;;;;;;5.20;79.25;102705.44;5042720;28;20118;-70
2022/01/14 07:06:00;;;;;;;80.05;31.83;;;;;;;5.33;79.24;102705.44;5023844;28;20049;-70
2022/01/14 07:08:28;;;;;;;82.63;33.08;;;;;;;5.79;77.34;102714.13;5031396;28;20103;-70
2022/01/14 07:10:54;;;;;;;78.35;31.27;;;;;;;5.56;78.16;102710.66;5041114;28;20045;-70
2022/01/14 07:13:20;;;;;;;84.35;33.92;;;;;;;5.89;76.74;102704.59;5028729;28;20049;-70
2022/01/14 07:15:47;;;;;;;72.28;31.80;;;;;;;5.75;77.00;102706.31;5035090;28;20575;-70
2022/01/14 07:18:15;;;;;;;59.22;28.60;;;;;;;5.78;76.73;102695.91;5034970;28;20082;-70
2022/01/14 07:20:42;;;;;;;72.38;33.47;;;;;;;5.77;76.65;102696.75;5035070;28;20052;-70
2022/01/14 07:23:09;;;;;;;70.97;32.25;;;;;;;5.85;76.36;102700.22;5048216;28;20045;-70
2022/01/14 07:25:38;;;;;;;147.02;122.57;;;;;;;5.53;77.55;102700.25;5037999;28;20038;-70
2022/01/14 07:28:05;;;;;;;78.18;31.73;;;;;;;5.74;77.05;102688.97;5022471;28;20044;-70
2022/01/14 07:30:31;;;;;;;238.05;211.32;;;;;;;5.45;77.65;102696.78;5022025;28;20073;-69
2022/01/14 07:32:58;;;;;;;78.70;31.45;;;;;;;5.74;77.07;102700.25;5024139;28;20573;-69
2022/01/14 07:35:25;;;;;;;78.32;31.75;;;;;;;5.83;76.32;102692.44;5019937;28;20055;-70
2022/01/14 07:37:51;;;;;;;77.47;32.58;;;;;;;5.60;77.07;102695.91;5017246;28;20643;-70
2022/01/14 07:40:17;;;;;;;64.78;30.55;;;;;;;5.77;77.00;102691.56;5027388;28;20127;-70
2022/01/14 07:42:45;;;;;;;79.28;31.92;;;;;;;5.75;77.01;102701.13;5023858;28;20103;-70
2022/01/14 07:45:12;;;;;;;79.72;34.28;;;;;;;5.88;76.32;102692.44;5036844;28;20709;-70
2022/01/14 07:47:39;;;;;;;69.65;29.90;;;;;;;5.68;77.30;102697.66;5043609;28;20122;-70
2022/01/14 07:50:06;;;;;;;76.90;30.75;;;;;;;5.65;77.12;102696.78;5021913;28;20436;-70
2022/01/14 07:52:32;;;;;;;76.38;31.75;;;;;;;5.68;77.18;102699.38;5038924;28;20053;-70
2022/01/14 07:54:59;;;;;;;74.00;40.60;;;;;;;5.66;77.69;102701.97;5016343;28;20046;-70
2022/01/14 07:57:25;;;;;;;65.38;30.35;;;;;;;5.72;77.33;102699.41;5030638;28;20219;-70
2022/01/14 07:59:53;;;;;;;64.88;38.35;;;;;;;5.85;76.77;102708.91;5039146;28;20037;-70
2022/01/14 08:02:21;;;;;;;62.17;29.40;;;;;;;5.84;77.15;102714.09;5028866;28;20444;-70
2022/01/14 08:04:48;;;;;;;65.97;29.90;;;;;;;5.81;77.28;102721.94;5035497;28;20063;-70
2022/01/14 08:07:17;;;;;;;79.05;45.33;;;;;;;5.67;77.80;102734.09;5033310;28;20506;-70
2022/01/14 08:09:44;;;;;;;61.60;31.95;;;;;;;5.56;78.52;102738.41;5034875;28;20046;-70
2022/01/14 08:12:13;;;;;;;69.45;30.02;;;;;;;5.57;78.54;102747.97;5030782;28;20095;-70
2022/01/14 08:14:40;;;;;;;72.05;29.35;;;;;;;5.70;78.03;102747.97;5037615;28;20045;-70
2022/01/14 08:17:08;;;;;;;59.83;28.90;;;;;;;5.99;77.02;102752.31;5031311;28;20114;-70
2022/01/14 08:19:36;;;;;;;73.75;32.13;;;;;;;5.67;78.32;102745.34;5031674;28;20099;-70
2022/01/14 08:22:04;;;;;;;74.65;31.27;;;;;;;5.86;77.90;102744.53;5028506;28;20045;-70
2022/01/14 08:24:32;;;;;;;69.90;32.85;;;;;;;5.88;77.50;102740.19;5037951;28;20122;-70
2022/01/14 08:26:58;;;;;;;74.28;37.30;;;;;;;5.86;77.95;102731.50;5036960;28;20045;-70
2022/01/14 08:29:27;;;;;;;75.55;31.08;;;;;;;5.65;78.78;102728.91;5028222;28;20041;-70
2022/01/14 08:31:53;;;;;;;75.15;31.55;;;;;;;5.84;78.73;102727.13;5032210;28;20072;-70
2022/01/14 08:34:22;;;;;;;77.53;32.42;;;;;;;6.20;77.00;102723.66;5040026;28;20060;-70
2022/01/14 08:36:48;;;;;;;80.30;31.77;;;;;;;6.01;77.71;102719.34;5025956;28;20042;-70
2022/01/14 08:39:14;;;;;;;65.28;29.02;;;;;;;5.90;78.15;102723.69;5022911;28;20046;-70
2022/01/14 08:41:41;;;;;;;69.13;31.67;;;;;;;5.79;78.77;102724.53;5027107;28;20092;-70
2022/01/14 08:44:08;;;;;;;65.45;34.20;;;;;;;5.88;78.59;102734.09;5035781;28;20049;-70
2022/01/14 08:46:35;;;;;;;68.05;30.45;;;;;;;6.28;77.04;102745.34;5024023;28;20049;-70
2022/01/14 08:49:01;;;;;;;73.78;35.88;;;;;;;5.78;79.14;102738.41;5008400;28;20060;-71
2022/01/14 08:51:29;;;;;;;65.95;31.50;;;;;;;5.76;79.17;102728.88;5023138;28;20054;-70
2022/01/14 08:54:02;;;;;;;72.35;29.52;;;;;;;5.83;79.12;102730.63;5044792;28;20098;-70
2022/01/14 08:56:29;;;;;;;74.05;41.15;;;;;;;5.86;78.90;102717.63;5039237;28;21442;-69
2022/01/14 08:58:55;;;;;;;66.68;40.70;;;;;;;5.87;78.88;102711.56;5026050;28;20045;-70
2022/01/14 09:01:21;;;;;;;57.13;28.17;;;;;;;6.23;77.83;102715.81;5025267;28;20464;-70
2022/01/14 09:03:48;;;;;;;124.93;93.45;;;;;;;6.15;77.97;102704.56;5041486;28;20164;-70
2022/01/14 09:06:15;;;;;;;66.80;31.17;;;;;;;6.39;77.54;102706.25;5026208;28;20563;-70
2022/01/14 09:08:42;;;;;;;63.15;31.15;;;;;;;6.16;78.29;102703.69;5027746;28;20045;-70
2022/01/14 09:11:09;;;;;;;93.22;55.63;;;;;;;6.02;78.52;102711.53;5033707;28;20044;-70
2022/01/14 09:13:36;;;;;;;66.38;29.80;;;;;;;6.33;77.83;102699.28;5032669;28;20138;-70
2022/01/14 09:16:03;;;;;;;186.45;162.55;;;;;;;6.17;77.69;102687.22;5034294;28;20045;-70
2022/01/14 09:18:29;;;;;;;66.15;36.10;;;;;;;6.43;77.34;102689.72;5042552;28;20386;-69
2022/01/14 09:20:58;;;;;;;59.70;29.67;;;;;;;6.34;77.63;102693.22;5036535;28;20041;-69
2022/01/14 09:23:25;;;;;;;95.63;67.20;;;;;;;6.36;77.02;102696.66;5049709;28;20048;-69
2022/01/14 09:25:53;;;;;;;63.65;27.45;;;;;;;6.65;76.36;102700.03;5041705;28;20049;-69
2022/01/14 09:28:20;;;;;;;70.28;26.65;;;;;;;6.47;76.96;102699.28;5014043;28;20073;-70
2022/01/14 09:30:46;;;;;;;70.95;29.58;;;;;;;6.54;76.86;102696.59;5025583;28;20049;-70
2022/01/14 09:33:14;;;;;;;69.45;33.47;;;;;;;6.36;77.66;102694.06;5050477;28;20048;-70
2022/01/14 09:35:41;;;;;;;215.77;191.02;;;;;;;6.05;78.44;102684.63;5042464;28;20703;-70
2022/01/14 09:38:07;;;;;;;240.88;212.60;;;;;;;6.12;78.60;102682.00;5027844;28;20499;-70
2022/01/14 09:40:34;;;;;;;65.25;32.58;;;;;;;6.30;78.53;102681.06;5026944;28;20091;-70
2022/01/14 09:43:01;;;;;;;62.97;33.80;;;;;;;6.55;77.32;102669.69;5046709;28;20049;-69
2022/01/14 09:45:30;;;;;;;117.57;83.60;;;;;;;6.25;78.26;102656.75;5046488;28;20528;-70
2022/01/14 09:47:57;;;;;;;60.50;27.23;;;;;;;6.45;78.18;102680.16;5039632;28;20051;-70
2022/01/14 09:50:24;;;;;;;77.28;66.70;;;;;;;6.43;77.50;102687.13;5043258;28;20037;-69
2022/01/14 09:52:51;;;;;;;55.25;30.85;;;;;;;6.35;77.82;102692.34;5047552;28;20045;-69
2022/01/14 09:55:18;;;;;;;174.18;154.98;;;;;;;6.38;77.80;102697.56;5021735;28;20416;-69
2022/01/14 09:57:45;;;;;;;57.78;28.92;;;;;;;6.46;78.30;102702.75;5036223;28;20049;-70
2022/01/14 10:00:14;;;;;;;61.65;35.35;;;;;;;6.43;78.04;102698.38;5044859;28;20053;-70
2022/01/14 10:02:43;;;;;;;84.20;58.67;;;;;;;6.20;78.62;102708.03;5044672;28;20547;-69
2022/01/14 10:05:30;;;;;;;62.72;30.15;;;;;;;6.65;77.93;102696.59;5035460;28;20472;-69
2022/01/14 10:08:08;;;;;;;54.60;27.25;;;;;;;6.65;77.28;102705.25;5026220;28;20112;-70
2022/01/14 10:10:36;;;;;;;65.68;30.67;;;;;;;6.54;77.79;102696.59;5042875;28;20040;-70
2022/01/14 10:13:11;;;;;;;65.65;34.00;;;;;;;6.49;77.79;102703.59;5029532;28;20585;-70
2022/01/14 10:15:45;;;;;;;108.20;96.13;;;;;;;6.20;78.67;102690.66;5047068;28;20041;-70
2022/01/14 10:18:13;;;;;;;63.85;47.97;;;;;;;6.27;78.73;102696.72;5054501;28;20094;-70
2022/01/14 10:20:40;;;;;;;55.72;27.63;;;;;;;6.51;78.09;102691.41;5061310;28;20045;-69
2022/01/14 10:23:06;;;;;;;57.60;34.78;;;;;;;6.77;77.53;102673.91;5064725;28;20044;-70
2022/01/14 10:25:32;;;;;;;69.68;49.28;;;;;;;6.49;77.67;102693.16;5050653;28;20094;-70
2022/01/14 10:27:59;;;;;;;58.08;27.95;;;;;;;6.72;77.37;102672.22;5052772;28;20098;-70
2022/01/14 10:30:28;;;;;;;63.05;36.65;;;;;;;6.76;76.70;102687.81;5064526;28;20040;-70
2022/01/14 10:33:00;;;;;;;54.42;26.13;;;;;;;6.99;76.56;102685.09;5049433;28;20045;-70
2022/01/14 10:35:28;;;;;;;60.92;30.45;;;;;;;6.70;76.85;102672.22;5057473;28;20048;-70
2022/01/14 10:37:55;;;;;;;57.78;40.85;;;;;;;6.91;76.28;102678.19;5046909;28;20083;-70
2022/01/14 10:40:24;;;;;;;239.57;214.32;;;;;;;6.57;77.45;102674.91;5053667;28;20052;-70
2022/01/14 10:42:53;;;;;;;215.63;192.52;;;;;;;6.62;77.37;102678.31;5039312;28;20196;-70
2022/01/14 10:45:22;;;;;;;60.15;39.53;;;;;;;6.66;77.44;102680.91;5046765;28;20090;-70
2022/01/14 10:47:55;;;;;;;174.77;156.85;;;;;;;6.56;77.34;102670.53;5037798;28;20045;-70
2022/01/14 10:50:35;;;;;;;68.07;47.10;;;;;;;6.76;77.17;102672.16;5035247;28;20496;-70
2022/01/14 10:53:03;;;;;;;46.08;27.23;;;;;;;6.80;76.95;102659.97;5028828;28;20437;-70
2022/01/14 10:55:33;;;;;;;68.68;44.90;;;;;;;6.74;76.91;102652.22;5032113;28;20465;-69
2022/01/14 10:58:03;;;;;;;51.92;29.10;;;;;;;7.19;76.04;102646.72;5040769;28;20044;-69
2022/01/14 11:00:30;;;;;;;50.42;24.80;;;;;;;7.33;75.28;102636.16;5053272;28;20042;-70
2022/01/14 11:02:56;;;;;;;88.97;74.63;;;;;;;7.13;75.50;102638.06;5044737;28;20041;-70
2022/01/14 11:05:24;;;;;;;56.58;28.40;;;;;;;6.96;76.15;102632.94;5050370;28;20045;-70
2022/01/14 11:07:52;;;;;;;51.17;24.38;;;;;;;7.44;75.01;102625.63;5044404;28;20372;-70
2022/01/14 11:10:24;;;;;;;49.63;23.67;;;;;;;7.13;76.48;102630.25;5043999;28;20413;-70
2022/01/14 11:12:52;;;;;;;55.63;30.13;;;;;;;7.34;75.42;102624.84;5030823;28;20118;-70
2022/01/14 11:15:19;;;;;;;48.55;25.65;;;;;;;7.17;75.94;102631.91;5040843;28;20041;-70
2022/01/14 11:17:50;;;;;;;46.03;25.20;;;;;;;7.43;75.34;102629.97;5049890;28;20041;-70
2022/01/14 11:20:22;;;;;;;48.78;25.75;;;;;;;7.51;75.41;102635.13;5047488;28;20044;-70
2022/01/14 11:25:38;;;;;;;46.05;27.40;;;;;;;7.59;74.83;102623.75;5028219;28;20055;-70
2022/01/14 11:28:05;;;;;;;53.88;24.02;;;;;;;7.54;75.27;102620.28;5031227;28;20103;-70
2022/01/14 11:30:33;;;;;;;63.55;34.15;;;;;;;7.65;74.99;102615.84;5046198;28;20117;-70